sensor_id;sensor_type;location;lat;lon;timestamp;P1;durP1;ratioP1;P2;durP2;ratioP2
10991;SDS011;5549;47.028;15.514;2022-09-09T00:02:13;0.50;;;0.50;;
10991;SDS011;5549;47.028;15.514;2022-09-09T00:04:51;0.87;;;0.87;;
10991;SDS011;5549;47.028;15.514;2022-09-09T00:07:34;0.90;;;0.90;;
10991;SDS011;5549;47.028;15.514;2022-09-09T00:10:14;1.30;;;0.80;;
10991;SDS011;5549;47.028;15.514;2022-09-09T00:12:52;0.67;;;0.67;;
10991;SDS011;5549;47.028;15.514;2022-09-09T00:15:28;0.60;;;0.60;;
10991;SDS011;5549;47.028;15.514;2022-09-09T00:18:11;0.80;;;0.80;;
10991;SDS011;5549;47.028;15.514;2022-09-09T00:20:52;1.00;;;1.00;;
10991;SDS011;5549;47.028;15.514;2022-09-09T00:23:27;0.70;;;0.70;;
10991;SDS011;5549;47.028;15.514;2022-09-09T00:25:59;1.00;;;1.00;;
10991;SDS011;5549;47.028;15.514;2022-09-09T00:28:38;0.83;;;0.83;;
10991;SDS011;5549;47.028;15.514;2022-09-09T00:31:15;1.60;;;0.90;;
10991;SDS011;5549;47.028;15.514;2022-09-09T00:33:53;0.70;;;0.70;;
10991;SDS011;5549;47.028;15.514;2022-09-09T00:36:26;0.70;;;0.70;;
10991;SDS011;5549;47.028;15.514;2022-09-09T00:38:55;0.70;;;0.70;;
10991;SDS011;5549;47.028;15.514;2022-09-09T00:41:31;0.50;;;0.50;;
10991;SDS011;5549;47.028;15.514;2022-09-09T00:44:13;0.80;;;0.80;;
10991;SDS011;5549;47.028;15.514;2022-09-09T00:47:01;0.70;;;0.70;;
10991;SDS011;5549;47.028;15.514;2022-09-09T00:49:47;6.03;;;0.90;;
10991;SDS011;5549;47.028;15.514;2022-09-09T00:52:31;1.13;;;0.70;;
10991;SDS011;5549;47.028;15.514;2022-09-09T00:55:10;0.50;;;0.50;;
10991;SDS011;5549;47.028;15.514;2022-09-09T00:57:46;1.03;;;0.63;;
10991;SDS011;5549;47.028;15.514;2022-09-09T01:00:21;0.80;;;0.80;;
10991;SDS011;5549;47.028;15.514;2022-09-09T01:05:57;1.50;;;0.60;;
10991;SDS011;5549;47.028;15.514;2022-09-09T01:08:36;0.50;;;0.50;;
10991;SDS011;5549;47.028;15.514;2022-09-09T01:11:20;0.60;;;0.60;;
10991;SDS011;5549;47.028;15.514;2022-09-09T01:13:55;1.40;;;0.60;;
10991;SDS011;5549;47.028;15.514;2022-09-09T01:16:30;0.57;;;0.57;;
10991;SDS011;5549;47.028;15.514;2022-09-09T01:19:02;0.70;;;0.70;;
10991;SDS011;5549;47.028;15.514;2022-09-09T01:21:39;2.47;;;0.70;;
10991;SDS011;5549;47.028;15.514;2022-09-09T01:24:20;1.10;;;0.70;;
10991;SDS011;5549;47.028;15.514;2022-09-09T01:26:55;0.57;;;0.57;;
10991;SDS011;5549;47.028;15.514;2022-09-09T01:29:30;0.60;;;0.60;;
10991;SDS011;5549;47.028;15.514;2022-09-09T01:31:58;0.60;;;0.60;;
10991;SDS011;5549;47.028;15.514;2022-09-09T01:34:30;0.43;;;0.43;;
10991;SDS011;5549;47.028;15.514;2022-09-09T01:37:03;0.70;;;0.70;;
10991;SDS011;5549;47.028;15.514;2022-09-09T01:39:33;0.70;;;0.70;;
10991;SDS011;5549;47.028;15.514;2022-09-09T01:42:07;0.53;;;0.53;;
10991;SDS011;5549;47.028;15.514;2022-09-09T01:44:39;1.77;;;0.77;;
10991;SDS011;5549;47.028;15.514;2022-09-09T01:47:08;0.70;;;0.70;;
10991;SDS011;5549;47.028;15.514;2022-09-09T01:49:39;0.47;;;0.47;;
10991;SDS011;5549;47.028;15.514;2022-09-09T01:52:11;0.53;;;0.53;;
10991;SDS011;5549;47.028;15.514;2022-09-09T01:54:39;1.83;;;0.80;;
10991;SDS011;5549;47.028;15.514;2022-09-09T01:57:13;1.63;;;0.87;;
10991;SDS011;5549;47.028;15.514;2022-09-09T01:59:52;0.90;;;0.90;;
10991;SDS011;5549;47.028;15.514;2022-09-09T02:02:33;0.73;;;0.73;;
10991;SDS011;5549;47.028;15.514;2022-09-09T02:05:16;0.93;;;0.93;;
10991;SDS011;5549;47.028;15.514;2022-09-09T02:07:59;0.80;;;0.80;;
10991;SDS011;5549;47.028;15.514;2022-09-09T02:10:37;0.57;;;0.57;;
10991;SDS011;5549;47.028;15.514;2022-09-09T02:13:17;0.70;;;0.70;;
10991;SDS011;5549;47.028;15.514;2022-09-09T02:15:50;0.80;;;0.80;;
10991;SDS011;5549;47.028;15.514;2022-09-09T02:18:28;0.60;;;0.60;;
10991;SDS011;5549;47.028;15.514;2022-09-09T02:21:07;0.60;;;0.60;;
10991;SDS011;5549;47.028;15.514;2022-09-09T02:23:42;0.60;;;0.60;;
10991;SDS011;5549;47.028;15.514;2022-09-09T02:26:14;0.60;;;0.60;;
10991;SDS011;5549;47.028;15.514;2022-09-09T02:28:49;0.70;;;0.70;;
10991;SDS011;5549;47.028;15.514;2022-09-09T02:31:23;0.90;;;0.90;;
10991;SDS011;5549;47.028;15.514;2022-09-09T02:33:54;0.70;;;0.70;;
10991;SDS011;5549;47.028;15.514;2022-09-09T02:36:32;0.73;;;0.73;;
10991;SDS011;5549;47.028;15.514;2022-09-09T02:39:07;0.90;;;0.90;;
10991;SDS011;5549;47.028;15.514;2022-09-09T02:41:42;1.70;;;1.00;;
10991;SDS011;5549;47.028;15.514;2022-09-09T02:44:12;0.50;;;0.50;;
10991;SDS011;5549;47.028;15.514;2022-09-09T02:49:43;0.60;;;0.60;;
10991;SDS011;5549;47.028;15.514;2022-09-09T02:52:26;0.80;;;0.80;;
10991;SDS011;5549;47.028;15.514;2022-09-09T02:55:04;0.80;;;0.80;;
10991;SDS011;5549;47.028;15.514;2022-09-09T02:57:46;0.63;;;0.63;;
10991;SDS011;5549;47.028;15.514;2022-09-09T03:00:23;0.70;;;0.70;;
10991;SDS011;5549;47.028;15.514;2022-09-09T03:02:54;0.50;;;0.50;;
10991;SDS011;5549;47.028;15.514;2022-09-09T03:05:27;1.10;;;0.80;;
10991;SDS011;5549;47.028;15.514;2022-09-09T03:08:00;4.13;;;0.77;;
10991;SDS011;5549;47.028;15.514;2022-09-09T03:10:29;0.70;;;0.70;;
10991;SDS011;5549;47.028;15.514;2022-09-09T03:13:06;0.80;;;0.80;;
10991;SDS011;5549;47.028;15.514;2022-09-09T03:15:54;0.90;;;0.90;;
10991;SDS011;5549;47.028;15.514;2022-09-09T03:18:33;0.70;;;0.70;;
10991;SDS011;5549;47.028;15.514;2022-09-09T03:21:08;0.70;;;0.70;;
10991;SDS011;5549;47.028;15.514;2022-09-09T03:23:44;0.57;;;0.57;;
10991;SDS011;5549;47.028;15.514;2022-09-09T03:26:19;0.63;;;0.63;;
10991;SDS011;5549;47.028;15.514;2022-09-09T03:28:58;0.60;;;0.60;;
10991;SDS011;5549;47.028;15.514;2022-09-09T03:31:35;0.67;;;0.63;;
10991;SDS011;5549;47.028;15.514;2022-09-09T03:34:04;0.60;;;0.60;;
10991;SDS011;5549;47.028;15.514;2022-09-09T03:36:37;0.57;;;0.57;;
10991;SDS011;5549;47.028;15.514;2022-09-09T03:39:07;0.67;;;0.67;;
10991;SDS011;5549;47.028;15.514;2022-09-09T03:41:36;0.60;;;0.60;;
10991;SDS011;5549;47.028;15.514;2022-09-09T03:44:04;0.87;;;0.87;;
10991;SDS011;5549;47.028;15.514;2022-09-09T03:46:32;1.00;;;1.00;;
10991;SDS011;5549;47.028;15.514;2022-09-09T03:49:04;0.90;;;0.90;;
10991;SDS011;5549;47.028;15.514;2022-09-09T03:51:31;0.90;;;0.90;;
10991;SDS011;5549;47.028;15.514;2022-09-09T03:54:07;1.03;;;0.97;;
10991;SDS011;5549;47.028;15.514;2022-09-09T03:56:38;0.67;;;0.67;;
10991;SDS011;5549;47.028;15.514;2022-09-09T03:59:08;0.80;;;0.80;;
10991;SDS011;5549;47.028;15.514;2022-09-09T04:01:41;0.80;;;0.80;;
10991;SDS011;5549;47.028;15.514;2022-09-09T04:04:18;0.70;;;0.70;;
10991;SDS011;5549;47.028;15.514;2022-09-09T04:06:49;0.73;;;0.73;;
10991;SDS011;5549;47.028;15.514;2022-09-09T04:09:20;1.00;;;1.00;;
10991;SDS011;5549;47.028;15.514;2022-09-09T04:11:50;0.77;;;0.77;;
10991;SDS011;5549;47.028;15.514;2022-09-09T04:14:18;0.90;;;0.90;;
10991;SDS011;5549;47.028;15.514;2022-09-09T04:16:46;3.40;;;1.07;;
10991;SDS011;5549;47.028;15.514;2022-09-09T04:19:18;0.90;;;0.90;;
10991;SDS011;5549;47.028;15.514;2022-09-09T04:21:45;0.97;;;0.97;;
10991;SDS011;5549;47.028;15.514;2022-09-09T04:24:15;1.17;;;1.17;;
10991;SDS011;5549;47.028;15.514;2022-09-09T04:26:43;1.13;;;1.13;;
10991;SDS011;5549;47.028;15.514;2022-09-09T04:29:15;0.93;;;0.93;;
10991;SDS011;5549;47.028;15.514;2022-09-09T04:31:43;0.93;;;0.93;;
10991;SDS011;5549;47.028;15.514;2022-09-09T04:34:12;1.20;;;1.13;;
10991;SDS011;5549;47.028;15.514;2022-09-09T04:36:44;0.80;;;0.80;;
10991;SDS011;5549;47.028;15.514;2022-09-09T04:39:14;1.13;;;1.10;;
10991;SDS011;5549;47.028;15.514;2022-09-09T04:41:43;1.03;;;1.03;;
10991;SDS011;5549;47.028;15.514;2022-09-09T04:44:11;0.90;;;0.90;;
10991;SDS011;5549;47.028;15.514;2022-09-09T04:46:42;1.70;;;1.27;;
10991;SDS011;5549;47.028;15.514;2022-09-09T04:49:11;1.40;;;1.40;;
10991;SDS011;5549;47.028;15.514;2022-09-09T04:51:38;1.77;;;1.17;;
10991;SDS011;5549;47.028;15.514;2022-09-09T04:54:07;1.50;;;1.40;;
10991;SDS011;5549;47.028;15.514;2022-09-09T04:56:37;1.10;;;1.10;;
10991;SDS011;5549;47.028;15.514;2022-09-09T04:59:09;1.40;;;1.40;;
10991;SDS011;5549;47.028;15.514;2022-09-09T05:01:39;1.27;;;1.27;;
10991;SDS011;5549;47.028;15.514;2022-09-09T05:04:07;1.43;;;1.20;;
10991;SDS011;5549;47.028;15.514;2022-09-09T05:06:37;1.00;;;1.00;;
10991;SDS011;5549;47.028;15.514;2022-09-09T05:09:07;2.33;;;1.10;;
10991;SDS011;5549;47.028;15.514;2022-09-09T05:11:35;1.10;;;1.10;;
10991;SDS011;5549;47.028;15.514;2022-09-09T05:14:03;0.70;;;0.70;;
10991;SDS011;5549;47.028;15.514;2022-09-09T05:16:33;1.03;;;1.00;;
10991;SDS011;5549;47.028;15.514;2022-09-09T05:19:01;0.90;;;0.90;;
10991;SDS011;5549;47.028;15.514;2022-09-09T05:21:29;1.17;;;1.17;;
10991;SDS011;5549;47.028;15.514;2022-09-09T05:23:59;1.07;;;0.73;;
10991;SDS011;5549;47.028;15.514;2022-09-09T05:26:28;4.17;;;1.10;;
10991;SDS011;5549;47.028;15.514;2022-09-09T05:28:57;1.10;;;1.10;;
10991;SDS011;5549;47.028;15.514;2022-09-09T05:31:29;0.60;;;0.60;;
10991;SDS011;5549;47.028;15.514;2022-09-09T05:33:58;0.90;;;0.90;;
10991;SDS011;5549;47.028;15.514;2022-09-09T05:36:25;0.70;;;0.70;;
10991;SDS011;5549;47.028;15.514;2022-09-09T05:38:55;0.80;;;0.80;;
10991;SDS011;5549;47.028;15.514;2022-09-09T05:41:23;0.63;;;0.63;;
10991;SDS011;5549;47.028;15.514;2022-09-09T05:43:55;0.90;;;0.70;;
10991;SDS011;5549;47.028;15.514;2022-09-09T05:46:27;0.50;;;0.50;;
10991;SDS011;5549;47.028;15.514;2022-09-09T05:48:57;1.07;;;0.60;;
10991;SDS011;5549;47.028;15.514;2022-09-09T05:51:26;0.60;;;0.60;;
10991;SDS011;5549;47.028;15.514;2022-09-09T05:53:59;1.03;;;0.87;;
10991;SDS011;5549;47.028;15.514;2022-09-09T05:56:27;0.80;;;0.80;;
10991;SDS011;5549;47.028;15.514;2022-09-09T05:58:57;0.83;;;0.83;;
10991;SDS011;5549;47.028;15.514;2022-09-09T06:01:25;0.73;;;0.70;;
10991;SDS011;5549;47.028;15.514;2022-09-09T06:03:54;0.83;;;0.60;;
10991;SDS011;5549;47.028;15.514;2022-09-09T06:06:23;0.57;;;0.57;;
10991;SDS011;5549;47.028;15.514;2022-09-09T06:08:53;0.80;;;0.80;;
10991;SDS011;5549;47.028;15.514;2022-09-09T06:11:28;1.07;;;0.80;;
10991;SDS011;5549;47.028;15.514;2022-09-09T06:14:02;0.87;;;0.80;;
10991;SDS011;5549;47.028;15.514;2022-09-09T06:16:32;0.80;;;0.80;;
10991;SDS011;5549;47.028;15.514;2022-09-09T06:19:03;2.00;;;1.00;;
10991;SDS011;5549;47.028;15.514;2022-09-09T06:21:31;1.47;;;0.80;;
10991;SDS011;5549;47.028;15.514;2022-09-09T06:24:02;0.80;;;0.80;;
10991;SDS011;5549;47.028;15.514;2022-09-09T06:26:33;1.13;;;0.70;;
10991;SDS011;5549;47.028;15.514;2022-09-09T06:29:04;0.70;;;0.70;;
10991;SDS011;5549;47.028;15.514;2022-09-09T06:31:35;0.77;;;0.77;;
10991;SDS011;5549;47.028;15.514;2022-09-09T06:34:06;0.60;;;0.60;;
10991;SDS011;5549;47.028;15.514;2022-09-09T06:36:38;0.53;;;0.53;;
10991;SDS011;5549;47.028;15.514;2022-09-09T06:39:06;1.13;;;1.00;;
10991;SDS011;5549;47.028;15.514;2022-09-09T06:41:36;0.60;;;0.60;;
10991;SDS011;5549;47.028;15.514;2022-09-09T06:44:06;0.70;;;0.70;;
10991;SDS011;5549;47.028;15.514;2022-09-09T06:46:36;0.80;;;0.80;;
10991;SDS011;5549;47.028;15.514;2022-09-09T06:49:04;0.80;;;0.80;;
10991;SDS011;5549;47.028;15.514;2022-09-09T06:51:33;0.77;;;0.77;;
10991;SDS011;5549;47.028;15.514;2022-09-09T06:54:11;0.90;;;0.90;;
10991;SDS011;5549;47.028;15.514;2022-09-09T06:56:41;0.87;;;0.87;;
10991;SDS011;5549;47.028;15.514;2022-09-09T06:59:12;0.80;;;0.80;;
10991;SDS011;5549;47.028;15.514;2022-09-09T07:01:40;1.17;;;0.80;;
10991;SDS011;5549;47.028;15.514;2022-09-09T07:04:12;1.80;;;0.93;;
10991;SDS011;5549;47.028;15.514;2022-09-09T07:06:43;0.87;;;0.87;;
10991;SDS011;5549;47.028;15.514;2022-09-09T07:09:13;1.10;;;1.10;;
10991;SDS011;5549;47.028;15.514;2022-09-09T07:11:43;1.10;;;1.07;;
10991;SDS011;5549;47.028;15.514;2022-09-09T07:14:16;0.90;;;0.90;;
10991;SDS011;5549;47.028;15.514;2022-09-09T07:16:45;1.00;;;1.00;;
10991;SDS011;5549;47.028;15.514;2022-09-09T07:19:13;1.10;;;1.10;;
10991;SDS011;5549;47.028;15.514;2022-09-09T07:21:44;1.20;;;1.20;;
10991;SDS011;5549;47.028;15.514;2022-09-09T07:24:13;1.60;;;1.60;;
10991;SDS011;5549;47.028;15.514;2022-09-09T07:26:45;1.40;;;1.30;;
10991;SDS011;5549;47.028;15.514;2022-09-09T07:29:12;1.20;;;1.20;;
10991;SDS011;5549;47.028;15.514;2022-09-09T07:31:41;1.17;;;1.17;;
10991;SDS011;5549;47.028;15.514;2022-09-09T07:34:11;1.00;;;1.00;;
10991;SDS011;5549;47.028;15.514;2022-09-09T07:36:39;2.07;;;1.70;;
10991;SDS011;5549;47.028;15.514;2022-09-09T07:39:10;2.37;;;1.93;;
10991;SDS011;5549;47.028;15.514;2022-09-09T07:41:42;6.33;;;4.07;;
10991;SDS011;5549;47.028;15.514;2022-09-09T07:44:13;5.00;;;3.90;;
10991;SDS011;5549;47.028;15.514;2022-09-09T07:46:46;6.00;;;4.33;;
10991;SDS011;5549;47.028;15.514;2022-09-09T07:49:14;4.30;;;3.53;;
10991;SDS011;5549;47.028;15.514;2022-09-09T07:51:46;3.90;;;3.33;;
10991;SDS011;5549;47.028;15.514;2022-09-09T07:54:15;3.93;;;2.83;;
10991;SDS011;5549;47.028;15.514;2022-09-09T07:56:46;5.17;;;3.83;;
10991;SDS011;5549;47.028;15.514;2022-09-09T07:59:16;9.80;;;4.00;;
10991;SDS011;5549;47.028;15.514;2022-09-09T08:01:45;6.30;;;4.10;;
10991;SDS011;5549;47.028;15.514;2022-09-09T08:04:19;3.73;;;3.10;;
10991;SDS011;5549;47.028;15.514;2022-09-09T08:06:51;3.70;;;3.33;;
10991;SDS011;5549;47.028;15.514;2022-09-09T08:09:21;4.73;;;3.70;;
10991;SDS011;5549;47.028;15.514;2022-09-09T08:11:52;4.90;;;3.37;;
10991;SDS011;5549;47.028;15.514;2022-09-09T08:14:21;3.93;;;3.37;;
10991;SDS011;5549;47.028;15.514;2022-09-09T08:16:52;3.67;;;3.07;;
10991;SDS011;5549;47.028;15.514;2022-09-09T08:19:21;4.47;;;3.20;;
10991;SDS011;5549;47.028;15.514;2022-09-09T08:21:48;4.33;;;3.10;;
10991;SDS011;5549;47.028;15.514;2022-09-09T08:24:16;3.17;;;2.83;;
10991;SDS011;5549;47.028;15.514;2022-09-09T08:26:45;3.47;;;3.10;;
10991;SDS011;5549;47.028;15.514;2022-09-09T08:29:19;3.33;;;2.87;;
10991;SDS011;5549;47.028;15.514;2022-09-09T08:31:50;5.73;;;2.83;;
10991;SDS011;5549;47.028;15.514;2022-09-09T08:34:25;4.13;;;2.40;;
10991;SDS011;5549;47.028;15.514;2022-09-09T08:36:55;4.83;;;3.00;;
10991;SDS011;5549;47.028;15.514;2022-09-09T08:39:24;2.70;;;2.50;;
10991;SDS011;5549;47.028;15.514;2022-09-09T08:41:58;3.93;;;2.57;;
10991;SDS011;5549;47.028;15.514;2022-09-09T08:45:10;2.30;;;2.20;;
10991;SDS011;5549;47.028;15.514;2022-09-09T08:47:57;2.93;;;2.70;;
10991;SDS011;5549;47.028;15.514;2022-09-09T08:50:38;2.83;;;1.90;;
10991;SDS011;5549;47.028;15.514;2022-09-09T08:53:09;6.50;;;2.30;;
10991;SDS011;5549;47.028;15.514;2022-09-09T08:55:44;2.20;;;2.10;;
10991;SDS011;5549;47.028;15.514;2022-09-09T08:58:16;2.30;;;2.10;;
10991;SDS011;5549;47.028;15.514;2022-09-09T09:00:53;2.60;;;2.17;;
10991;SDS011;5549;47.028;15.514;2022-09-09T09:03:40;3.43;;;2.30;;
10991;SDS011;5549;47.028;15.514;2022-09-09T09:06:23;2.00;;;1.90;;
10991;SDS011;5549;47.028;15.514;2022-09-09T09:09:11;3.70;;;2.20;;
10991;SDS011;5549;47.028;15.514;2022-09-09T09:11:48;1.73;;;1.63;;
10991;SDS011;5549;47.028;15.514;2022-09-09T09:14:23;2.00;;;1.90;;
10991;SDS011;5549;47.028;15.514;2022-09-09T09:16:53;1.70;;;1.60;;
10991;SDS011;5549;47.028;15.514;2022-09-09T09:19:28;2.80;;;1.80;;
10991;SDS011;5549;47.028;15.514;2022-09-09T09:22:02;1.57;;;1.57;;
10991;SDS011;5549;47.028;15.514;2022-09-09T09:24:42;2.10;;;1.90;;
10991;SDS011;5549;47.028;15.514;2022-09-09T09:27:22;1.90;;;1.80;;
10991;SDS011;5549;47.028;15.514;2022-09-09T09:29:59;2.00;;;1.90;;
10991;SDS011;5549;47.028;15.514;2022-09-09T09:32:39;2.10;;;1.87;;
10991;SDS011;5549;47.028;15.514;2022-09-09T09:35:15;1.97;;;1.87;;
10991;SDS011;5549;47.028;15.514;2022-09-09T09:37:45;1.80;;;1.70;;
10991;SDS011;5549;47.028;15.514;2022-09-09T09:40:16;1.70;;;1.60;;
10991;SDS011;5549;47.028;15.514;2022-09-09T09:42:49;2.00;;;1.83;;
10991;SDS011;5549;47.028;15.514;2022-09-09T09:45:26;1.70;;;1.60;;
10991;SDS011;5549;47.028;15.514;2022-09-09T09:48:00;1.70;;;1.60;;
10991;SDS011;5549;47.028;15.514;2022-09-09T09:50:32;1.60;;;1.50;;
10991;SDS011;5549;47.028;15.514;2022-09-09T09:53:02;1.50;;;1.50;;
10991;SDS011;5549;47.028;15.514;2022-09-09T09:55:33;2.23;;;1.60;;
10991;SDS011;5549;47.028;15.514;2022-09-09T09:58:05;1.60;;;1.50;;
10991;SDS011;5549;47.028;15.514;2022-09-09T10:00:36;1.60;;;1.50;;
10991;SDS011;5549;47.028;15.514;2022-09-09T10:03:18;1.97;;;1.30;;
10991;SDS011;5549;47.028;15.514;2022-09-09T10:05:54;1.20;;;1.20;;
10991;SDS011;5549;47.028;15.514;2022-09-09T10:08:25;1.50;;;1.23;;
10991;SDS011;5549;47.028;15.514;2022-09-09T10:11:10;1.30;;;1.30;;
10991;SDS011;5549;47.028;15.514;2022-09-09T10:13:54;2.37;;;1.47;;
10991;SDS011;5549;47.028;15.514;2022-09-09T10:16:40;1.43;;;1.40;;
10991;SDS011;5549;47.028;15.514;2022-09-09T10:19:21;1.60;;;1.50;;
10991;SDS011;5549;47.028;15.514;2022-09-09T10:22:05;1.40;;;1.30;;
10991;SDS011;5549;47.028;15.514;2022-09-09T10:28:10;1.00;;;1.00;;
10991;SDS011;5549;47.028;15.514;2022-09-09T10:31:00;1.40;;;1.30;;
10991;SDS011;5549;47.028;15.514;2022-09-09T10:33:44;1.47;;;1.37;;
10991;SDS011;5549;47.028;15.514;2022-09-09T10:36:19;1.10;;;1.10;;
10991;SDS011;5549;47.028;15.514;2022-09-09T10:38:54;1.27;;;1.20;;
10991;SDS011;5549;47.028;15.514;2022-09-09T10:41:34;1.37;;;1.37;;
10991;SDS011;5549;47.028;15.514;2022-09-09T10:44:17;1.53;;;1.20;;
10991;SDS011;5549;47.028;15.514;2022-09-09T10:47:17;1.10;;;1.10;;
10991;SDS011;5549;47.028;15.514;2022-09-09T10:50:20;1.10;;;1.10;;
10991;SDS011;5549;47.028;15.514;2022-09-09T10:53:14;2.47;;;1.33;;
10991;SDS011;5549;47.028;15.514;2022-09-09T10:55:57;1.20;;;1.10;;
10991;SDS011;5549;47.028;15.514;2022-09-09T10:58:36;1.43;;;1.40;;
10991;SDS011;5549;47.028;15.514;2022-09-09T11:01:15;1.10;;;1.00;;
10991;SDS011;5549;47.028;15.514;2022-09-09T11:03:49;1.10;;;1.00;;
10991;SDS011;5549;47.028;15.514;2022-09-09T11:06:25;1.00;;;1.00;;
10991;SDS011;5549;47.028;15.514;2022-09-09T11:08:59;3.83;;;1.20;;
10991;SDS011;5549;47.028;15.514;2022-09-09T11:11:36;1.73;;;1.63;;
10991;SDS011;5549;47.028;15.514;2022-09-09T11:14:12;1.10;;;1.10;;
10991;SDS011;5549;47.028;15.514;2022-09-09T11:16:50;1.37;;;1.00;;
10991;SDS011;5549;47.028;15.514;2022-09-09T11:19:24;1.67;;;1.50;;
10991;SDS011;5549;47.028;15.514;2022-09-09T11:22:00;1.40;;;1.30;;
10991;SDS011;5549;47.028;15.514;2022-09-09T11:24:36;1.47;;;1.37;;
10991;SDS011;5549;47.028;15.514;2022-09-09T11:27:13;0.90;;;0.90;;
10991;SDS011;5549;47.028;15.514;2022-09-09T11:36:09;1.80;;;1.10;;
10991;SDS011;5549;47.028;15.514;2022-09-09T11:39:36;2.40;;;0.90;;
10991;SDS011;5549;47.028;15.514;2022-09-09T11:42:37;0.90;;;0.90;;
10991;SDS011;5549;47.028;15.514;2022-09-09T11:45:09;1.27;;;1.23;;
10991;SDS011;5549;47.028;15.514;2022-09-09T11:47:52;0.93;;;0.93;;
10991;SDS011;5549;47.028;15.514;2022-09-09T11:50:28;1.10;;;1.00;;
10991;SDS011;5549;47.028;15.514;2022-09-09T11:53:04;0.93;;;0.93;;
10991;SDS011;5549;47.028;15.514;2022-09-09T11:56:05;1.00;;;1.00;;
10991;SDS011;5549;47.028;15.514;2022-09-09T11:58:44;0.73;;;0.73;;
10991;SDS011;5549;47.028;15.514;2022-09-09T12:01:27;1.90;;;1.00;;
10991;SDS011;5549;47.028;15.514;2022-09-09T12:04:14;0.80;;;0.80;;
10991;SDS011;5549;47.028;15.514;2022-09-09T12:07:21;0.87;;;0.87;;
10991;SDS011;5549;47.028;15.514;2022-09-09T12:09:58;2.13;;;0.80;;
10991;SDS011;5549;47.028;15.514;2022-09-09T12:12:33;0.90;;;0.90;;
10991;SDS011;5549;47.028;15.514;2022-09-09T12:15:26;0.97;;;0.97;;
10991;SDS011;5549;47.028;15.514;2022-09-09T12:17:56;0.77;;;0.77;;
10991;SDS011;5549;47.028;15.514;2022-09-09T12:20:32;1.27;;;1.00;;
10991;SDS011;5549;47.028;15.514;2022-09-09T12:23:16;0.70;;;0.70;;
10991;SDS011;5549;47.028;15.514;2022-09-09T12:26:05;0.97;;;0.97;;
10991;SDS011;5549;47.028;15.514;2022-09-09T12:28:59;1.30;;;0.90;;
10991;SDS011;5549;47.028;15.514;2022-09-09T12:31:44;1.50;;;0.90;;
10991;SDS011;5549;47.028;15.514;2022-09-09T12:34:25;1.10;;;0.93;;
10991;SDS011;5549;47.028;15.514;2022-09-09T12:37:03;0.90;;;0.90;;
10991;SDS011;5549;47.028;15.514;2022-09-09T12:39:47;0.87;;;0.87;;
10991;SDS011;5549;47.028;15.514;2022-09-09T12:42:23;1.03;;;1.03;;
10991;SDS011;5549;47.028;15.514;2022-09-09T12:44:55;1.03;;;1.03;;
10991;SDS011;5549;47.028;15.514;2022-09-09T12:47:28;1.60;;;1.00;;
10991;SDS011;5549;47.028;15.514;2022-09-09T12:50:14;1.00;;;0.90;;
10991;SDS011;5549;47.028;15.514;2022-09-09T12:52:48;1.00;;;1.00;;
10991;SDS011;5549;47.028;15.514;2022-09-09T12:55:19;2.57;;;1.10;;
10991;SDS011;5549;47.028;15.514;2022-09-09T12:57:52;1.47;;;1.10;;
10991;SDS011;5549;47.028;15.514;2022-09-09T13:00:22;0.90;;;0.90;;
10991;SDS011;5549;47.028;15.514;2022-09-09T13:02:54;0.93;;;0.90;;
10991;SDS011;5549;47.028;15.514;2022-09-09T13:05:28;1.03;;;1.00;;
10991;SDS011;5549;47.028;15.514;2022-09-09T13:08:04;1.23;;;1.10;;
10991;SDS011;5549;47.028;15.514;2022-09-09T13:10:38;1.37;;;0.90;;
10991;SDS011;5549;47.028;15.514;2022-09-09T13:13:13;0.90;;;0.90;;
10991;SDS011;5549;47.028;15.514;2022-09-09T13:15:48;1.23;;;0.80;;
10991;SDS011;5549;47.028;15.514;2022-09-09T13:18:21;1.03;;;0.80;;
10991;SDS011;5549;47.028;15.514;2022-09-09T13:20:51;0.83;;;0.83;;
10991;SDS011;5549;47.028;15.514;2022-09-09T13:23:21;1.10;;;1.10;;
10991;SDS011;5549;47.028;15.514;2022-09-09T13:25:53;0.90;;;0.90;;
10991;SDS011;5549;47.028;15.514;2022-09-09T13:28:23;0.73;;;0.73;;
10991;SDS011;5549;47.028;15.514;2022-09-09T13:30:57;0.80;;;0.80;;
10991;SDS011;5549;47.028;15.514;2022-09-09T13:33:31;1.13;;;1.13;;
10991;SDS011;5549;47.028;15.514;2022-09-09T13:36:09;1.03;;;1.00;;
10991;SDS011;5549;47.028;15.514;2022-09-09T13:38:40;0.90;;;0.90;;
10991;SDS011;5549;47.028;15.514;2022-09-09T13:41:22;0.70;;;0.70;;
10991;SDS011;5549;47.028;15.514;2022-09-09T13:43:52;1.13;;;0.80;;
10991;SDS011;5549;47.028;15.514;2022-09-09T13:46:24;0.70;;;0.70;;
10991;SDS011;5549;47.028;15.514;2022-09-09T13:49:02;0.80;;;0.80;;
10991;SDS011;5549;47.028;15.514;2022-09-09T13:51:47;0.80;;;0.80;;
10991;SDS011;5549;47.028;15.514;2022-09-09T13:54:21;0.80;;;0.80;;
10991;SDS011;5549;47.028;15.514;2022-09-09T13:56:51;1.00;;;1.00;;
10991;SDS011;5549;47.028;15.514;2022-09-09T13:59:22;0.80;;;0.80;;
10991;SDS011;5549;47.028;15.514;2022-09-09T14:01:54;0.80;;;0.80;;
10991;SDS011;5549;47.028;15.514;2022-09-09T14:04:26;1.10;;;0.70;;
10991;SDS011;5549;47.028;15.514;2022-09-09T14:06:54;0.77;;;0.77;;
10991;SDS011;5549;47.028;15.514;2022-09-09T14:09:24;0.83;;;0.83;;
10991;SDS011;5549;47.028;15.514;2022-09-09T14:11:54;0.90;;;0.90;;
10991;SDS011;5549;47.028;15.514;2022-09-09T14:14:22;1.13;;;1.00;;
10991;SDS011;5549;47.028;15.514;2022-09-09T14:16:53;0.70;;;0.70;;
10991;SDS011;5549;47.028;15.514;2022-09-09T14:19:21;1.10;;;0.83;;
10991;SDS011;5549;47.028;15.514;2022-09-09T14:21:52;0.80;;;0.80;;
10991;SDS011;5549;47.028;15.514;2022-09-09T14:24:23;0.77;;;0.77;;
10991;SDS011;5549;47.028;15.514;2022-09-09T14:26:51;1.10;;;0.80;;
10991;SDS011;5549;47.028;15.514;2022-09-09T14:29:19;1.03;;;1.03;;
10991;SDS011;5549;47.028;15.514;2022-09-09T14:31:49;0.93;;;0.93;;
10991;SDS011;5549;47.028;15.514;2022-09-09T14:34:16;1.30;;;1.20;;
10991;SDS011;5549;47.028;15.514;2022-09-09T14:36:44;1.77;;;1.60;;
10991;SDS011;5549;47.028;15.514;2022-09-09T14:39:13;1.77;;;1.40;;
10991;SDS011;5549;47.028;15.514;2022-09-09T14:41:43;1.17;;;1.17;;
10991;SDS011;5549;47.028;15.514;2022-09-09T14:44:11;1.10;;;1.10;;
10991;SDS011;5549;47.028;15.514;2022-09-09T14:46:39;1.03;;;1.03;;
10991;SDS011;5549;47.028;15.514;2022-09-09T14:49:07;1.30;;;1.23;;
10991;SDS011;5549;47.028;15.514;2022-09-09T14:51:36;1.13;;;1.13;;
10991;SDS011;5549;47.028;15.514;2022-09-09T14:54:06;1.30;;;1.20;;
10991;SDS011;5549;47.028;15.514;2022-09-09T14:56:36;1.13;;;1.00;;
10991;SDS011;5549;47.028;15.514;2022-09-09T14:59:04;0.97;;;0.97;;
10991;SDS011;5549;47.028;15.514;2022-09-09T15:01:31;1.00;;;1.00;;
10991;SDS011;5549;47.028;15.514;2022-09-09T15:04:02;3.17;;;1.10;;
10991;SDS011;5549;47.028;15.514;2022-09-09T15:06:35;0.80;;;0.80;;
10991;SDS011;5549;47.028;15.514;2022-09-09T15:09:04;1.30;;;1.20;;
10991;SDS011;5549;47.028;15.514;2022-09-09T15:11:36;1.13;;;1.00;;
10991;SDS011;5549;47.028;15.514;2022-09-09T15:14:04;1.20;;;1.20;;
10991;SDS011;5549;47.028;15.514;2022-09-09T15:16:36;0.83;;;0.83;;
10991;SDS011;5549;47.028;15.514;2022-09-09T15:19:05;1.40;;;1.40;;
10991;SDS011;5549;47.028;15.514;2022-09-09T15:21:35;1.00;;;1.00;;
10991;SDS011;5549;47.028;15.514;2022-09-09T15:24:06;1.37;;;1.37;;
10991;SDS011;5549;47.028;15.514;2022-09-09T15:26:39;1.10;;;1.10;;
10991;SDS011;5549;47.028;15.514;2022-09-09T15:29:12;1.03;;;1.03;;
10991;SDS011;5549;47.028;15.514;2022-09-09T15:31:43;1.20;;;1.20;;
10991;SDS011;5549;47.028;15.514;2022-09-09T15:34:11;1.00;;;1.00;;
10991;SDS011;5549;47.028;15.514;2022-09-09T15:36:41;1.10;;;1.10;;
10991;SDS011;5549;47.028;15.514;2022-09-09T15:39:12;2.10;;;1.30;;
10991;SDS011;5549;47.028;15.514;2022-09-09T15:41:45;1.20;;;1.20;;
10991;SDS011;5549;47.028;15.514;2022-09-09T15:44:16;2.57;;;1.30;;
10991;SDS011;5549;47.028;15.514;2022-09-09T15:46:46;1.43;;;1.33;;